Time;durP1;ratioP1;P1;durP2;ratioP2;P2;SDS_P1;SDS_P2;PMS_P1;PMS_P2;Temp;Humidity;BMP_temperature;BMP_pressure;BME280_temperature;BME280_humidity;BME280_pressure;Samples;Min_cycle;Max_cycle;Signal;HPM_P1;HPM_P2
2022/10/20 00:01:44;;;;;;;2.75;2.55;;;21.80;72.60;;;;;;4951006;28;20097;-10
2022/10/20 00:04:10;;;;;;;3.13;2.92;;;21.80;72.70;;;;;;4956165;28;20043;-10
2022/10/20 00:06:36;;;;;;;3.38;2.97;;;21.80;72.60;;;;;;4956310;28;20090;-21
2022/10/20 00:09:02;;;;;;;2.75;2.55;;;21.80;72.50;;;;;;4952920;28;20126;-11
2022/10/20 00:11:28;;;;;;;2.80;2.60;;;21.80;72.60;;;;;;4960471;28;20043;-10
2022/10/20 00:13:54;;;;;;;3.40;3.20;;;21.80;72.60;;;;;;4960201;28;20468;-16
2022/10/20 00:16:20;;;;;;;2.83;2.63;;;21.80;72.60;;;;;;4976590;28;20501;-14
2022/10/20 00:18:46;;;;;;;3.13;2.92;;;21.80;72.60;;;;;;4953087;28;20050;-10
2022/10/20 00:21:16;;;;;;;3.00;2.80;;;21.80;72.60;;;;;;4959427;28;20049;-11
2022/10/20 00:23:41;;;;;;;2.88;2.67;;;21.80;72.80;;;;;;4953605;28;20066;-12
2022/10/20 00:26:09;;;;;;;3.28;2.67;;;21.80;72.70;;;;;;4954159;28;20406;-18
2022/10/20 00:28:35;;;;;;;2.70;2.50;;;21.80;72.70;;;;;;4970691;28;20477;-17
2022/10/20 00:31:01;;;;;;;2.92;2.72;;;21.80;72.80;;;;;;4951504;28;20063;-13
2022/10/20 00:33:27;;;;;;;3.22;3.03;;;21.80;72.70;;;;;;4955128;28;20169;-24
2022/10/20 00:35:52;;;;;;;3.42;2.95;;;21.80;72.70;;;;;;4957182;28;20050;-24
2022/10/20 00:38:18;;;;;;;2.90;2.70;;;21.80;72.70;;;;;;4958593;28;20047;-21
2022/10/20 00:40:43;;;;;;;2.70;2.50;;;21.80;72.60;;;;;;4953335;28;20093;-20
2022/10/20 00:43:13;;;;;;;2.70;2.50;;;21.70;72.70;;;;;;4947450;28;20143;-29
2022/10/20 00:45:39;;;;;;;2.80;2.60;;;21.80;72.70;;;;;;4955967;28;20047;-21
2022/10/20 00:48:07;;;;;;;3.20;2.63;;;21.80;72.60;;;;;;4955585;28;20568;-20
2022/10/20 00:50:40;;;;;;;2.50;2.30;;;21.80;72.70;;;;;;4952897;28;20457;-21
2022/10/20 00:53:06;;;;;;;2.33;2.20;;;21.70;72.60;;;;;;4939038;28;20035;-20
2022/10/20 00:55:33;;;;;;;2.55;2.35;;;21.70;72.60;;;;;;4956248;28;20129;-23
2022/10/20 00:57:59;;;;;;;2.78;2.58;;;21.70;72.60;;;;;;4969171;28;20510;-22
2022/10/20 01:00:26;;;;;;;2.80;2.60;;;21.70;72.70;;;;;;4989421;28;20042;-20
2022/10/20 01:02:53;;;;;;;2.45;2.25;;;21.70;72.60;;;;;;4950808;28;20349;-20
2022/10/20 01:05:18;;;;;;;3.00;2.80;;;21.70;72.60;;;;;;4958057;28;20583;-22
2022/10/20 01:07:44;;;;;;;2.50;2.40;;;21.80;72.40;;;;;;4955589;28;20040;-23
2022/10/20 01:10:10;;;;;;;2.53;2.33;;;21.80;72.60;;;;;;4957631;28;20059;-24
2022/10/20 01:12:35;;;;;;;2.80;2.60;;;21.80;73.00;;;;;;4955153;28;20043;-21
2022/10/20 01:15:14;;;;;;;1.95;1.85;;;21.70;72.90;;;;;;4962688;28;20565;-21
2022/10/20 01:17:40;;;;;;;2.30;2.20;;;21.70;72.90;;;;;;4976991;28;20039;-22
2022/10/20 01:20:43;;;;;;;2.25;2.03;;;21.70;72.90;;;;;;4953351;28;20457;-21
2022/10/20 01:23:40;;;;;;;2.40;2.15;;;21.70;72.90;;;;;;4954494;28;20039;-23
2022/10/20 01:26:31;;;;;;;2.22;2.13;;;21.70;72.90;;;;;;4951649;28;20578;-22
2022/10/20 01:29:29;;;;;;;2.03;1.92;;;21.70;72.90;;;;;;4939207;28;20058;-20
2022/10/20 01:32:07;;;;;;;2.83;2.63;;;21.70;73.00;;;;;;4933677;28;20058;-20
2022/10/20 01:34:54;;;;;;;2.25;2.15;;;21.70;73.00;;;;;;4954240;28;20039;-23
2022/10/20 01:37:47;;;;;;;2.30;2.20;;;21.70;73.00;;;;;;4951881;28;20058;-21
2022/10/20 01:40:21;;;;;;;2.50;2.30;;;21.70;73.00;;;;;;4969928;28;20027;-20
2022/10/20 01:42:46;;;;;;;2.00;1.90;;;21.70;73.00;;;;;;4985002;28;20414;-22
2022/10/20 01:45:12;;;;;;;2.45;2.35;;;21.70;73.00;;;;;;4969077;28;20048;-22
2022/10/20 01:47:38;;;;;;;2.30;2.10;;;21.70;73.00;;;;;;4953501;28;20051;-23
2022/10/20 01:50:04;;;;;;;2.47;2.03;;;21.70;72.90;;;;;;4957795;28;20055;-21
2022/10/20 01:52:30;;;;;;;2.20;2.00;;;21.70;73.00;;;;;;4958441;28;20049;-22
2022/10/20 01:54:56;;;;;;;2.22;2.03;;;21.70;73.00;;;;;;4951090;28;20051;-21
2022/10/20 01:57:45;;;;;;;2.47;2.28;;;21.60;72.80;;;;;;4954241;28;20057;-22
2022/10/20 02:00:12;;;;;;;1.95;1.85;;;21.70;72.90;;;;;;4949158;28;20308;-22
2022/10/20 02:03:09;;;;;;;2.05;1.95;;;21.70;72.90;;;;;;4950771;28;20047;-24
2022/10/20 02:05:55;;;;;;;1.77;1.60;;;21.60;72.90;;;;;;4958401;28;20067;-21
2022/10/20 02:08:36;;;;;;;1.77;1.67;;;21.70;72.90;;;;;;4955712;28;20846;-21
2022/10/20 02:11:02;;;;;;;2.10;1.90;;;21.70;72.80;;;;;;4973953;28;20054;-22
2022/10/20 02:13:28;;;;;;;1.80;1.70;;;21.70;72.90;;;;;;4972929;28;20066;-22
2022/10/20 02:15:56;;;;;;;2.05;1.92;;;21.70;72.90;;;;;;4956843;28;20039;-23
2022/10/20 02:18:25;;;;;;;2.47;2.28;;;21.60;72.80;;;;;;4955664;28;20059;-20
2022/10/20 02:20:51;;;;;;;2.58;2.38;;;21.70;72.80;;;;;;4975972;28;20055;-29
2022/10/20 02:23:16;;;;;;;2.10;1.95;;;21.70;72.70;;;;;;4953762;28;20501;-25
2022/10/20 02:25:42;;;;;;;2.20;2.10;;;21.60;72.80;;;;;;4958788;28;20046;-20
2022/10/20 02:28:11;;;;;;;2.10;2.00;;;21.70;72.80;;;;;;4959369;28;20038;-30
2022/10/20 02:30:37;;;;;;;1.92;1.83;;;21.60;72.70;;;;;;4973006;28;20320;-21
2022/10/20 02:33:02;;;;;;;2.13;1.75;;;21.60;72.80;;;;;;4953752;28;20411;-20
2022/10/20 02:35:29;;;;;;;1.67;1.58;;;21.60;72.80;;;;;;4970979;28;20043;-22
2022/10/20 02:37:55;;;;;;;2.00;1.90;;;21.70;72.80;;;;;;4963291;28;20114;-21
2022/10/20 02:40:21;;;;;;;1.90;1.80;;;21.60;72.80;;;;;;4953295;28;20047;-21
2022/10/20 02:42:46;;;;;;;1.90;1.80;;;21.60;72.70;;;;;;4957449;28;20054;-20
2022/10/20 02:45:12;;;;;;;1.70;1.60;;;21.60;72.70;;;;;;4958721;28;20039;-22
2022/10/20 02:47:38;;;;;;;1.70;1.60;;;21.60;72.70;;;;;;4956468;28;20046;-27
2022/10/20 02:50:04;;;;;;;1.65;1.50;;;21.60;72.50;;;;;;4960349;28;20144;-25
2022/10/20 02:52:30;;;;;;;1.95;1.85;;;21.70;72.40;;;;;;4956614;28;20142;-26
2022/10/20 02:54:55;;;;;;;1.70;1.60;;;21.70;72.40;;;;;;4955893;28;20553;-25
2022/10/20 02:57:21;;;;;;;1.95;1.85;;;21.70;72.30;;;;;;4960563;28;20039;-20
2022/10/20 02:59:46;;;;;;;2.58;1.77;;;21.70;72.30;;;;;;4955015;28;20510;-21
2022/10/20 03:02:12;;;;;;;1.80;1.70;;;21.70;72.40;;;;;;4953228;28;20047;-21
2022/10/20 03:04:37;;;;;;;1.83;1.73;;;21.70;72.50;;;;;;4958943;28;20043;-21
2022/10/20 03:07:03;;;;;;;2.00;1.80;;;21.70;72.60;;;;;;4959867;28;20391;-23
2022/10/20 03:09:29;;;;;;;1.83;1.73;;;21.60;73.50;;;;;;4954537;28;20125;-14
2022/10/20 03:11:54;;;;;;;1.80;1.70;;;21.60;72.70;;;;;;4956908;28;20063;-24
2022/10/20 03:14:20;;;;;;;1.75;1.65;;;21.60;72.50;;;;;;4957481;28;20050;-22
2022/10/20 03:16:45;;;;;;;1.83;1.73;;;21.70;72.40;;;;;;4957432;28;20500;-21
2022/10/20 03:19:11;;;;;;;2.28;2.08;;;21.70;72.30;;;;;;4958370;28;20133;-21
2022/10/20 03:21:36;;;;;;;2.10;1.98;;;21.70;72.30;;;;;;4958607;28;20051;-20
2022/10/20 03:24:02;;;;;;;2.00;1.90;;;21.70;72.20;;;;;;4955221;28;20058;-23
2022/10/20 03:26:28;;;;;;;1.67;1.58;;;21.70;72.20;;;;;;4957620;28;20047;-20
2022/10/20 03:28:53;;;;;;;1.70;1.60;;;21.70;72.20;;;;;;4952914;28;20070;-20
2022/10/20 03:31:19;;;;;;;1.75;1.65;;;21.70;72.20;;;;;;4956877;28;20129;-21
2022/10/20 03:33:44;;;;;;;1.85;1.75;;;21.70;72.30;;;;;;4950980;28;20039;-22
2022/10/20 03:36:10;;;;;;;1.50;1.40;;;21.70;72.20;;;;;;4951486;28;20051;-20
2022/10/20 03:38:36;;;;;;;1.92;1.80;;;21.70;72.20;;;;;;4959231;28;20477;-23
2022/10/20 03:41:01;;;;;;;1.85;1.75;;;21.70;72.20;;;;;;4953961;28;20105;-21
2022/10/20 03:43:27;;;;;;;1.90;1.60;;;21.70;72.20;;;;;;4958183;28;20046;-23
2022/10/20 03:46:01;;;;;;;1.70;1.60;;;21.70;72.20;;;;;;4955916;28;20516;-21
2022/10/20 03:48:27;;;;;;;1.50;1.40;;;21.70;72.10;;;;;;4951861;28;20043;-20
2022/10/20 03:50:52;;;;;;;2.20;2.00;;;21.70;72.10;;;;;;4954250;28;20076;-31
2022/10/20 03:53:18;;;;;;;1.60;1.50;;;21.70;72.10;;;;;;4954428;28;20042;-24
2022/10/20 03:55:43;;;;;;;1.98;1.75;;;21.70;72.20;;;;;;4956029;28;20069;-23
2022/10/20 03:58:09;;;;;;;1.55;1.45;;;21.70;72.20;;;;;;4958799;28;20174;-26
2022/10/20 04:00:34;;;;;;;1.48;1.38;;;21.70;72.10;;;;;;4957932;28;20586;-22
2022/10/20 04:03:00;;;;;;;1.80;1.70;;;21.70;72.10;;;;;;4956157;28;20062;-21
2022/10/20 04:05:26;;;;;;;1.70;1.60;;;21.70;72.10;;;;;;4953028;28;20046;-23
2022/10/20 04:07:51;;;;;;;1.23;1.23;;;21.70;72.30;;;;;;4953597;28;20065;-22
2022/10/20 04:10:17;;;;;;;1.50;1.40;;;21.70;72.00;;;;;;4951083;28;20047;-25
2022/10/20 04:12:42;;;;;;;1.80;1.70;;;21.70;72.10;;;;;;4956819;28;20079;-21
2022/10/20 04:15:08;;;;;;;1.50;1.40;;;21.70;72.10;;;;;;4954908;28;20047;-19
2022/10/20 04:17:35;;;;;;;1.30;1.30;;;21.70;72.20;;;;;;4955421;28;20430;-20
2022/10/20 04:20:01;;;;;;;1.70;1.60;;;21.70;72.10;;;;;;4951155;28;20186;-22
2022/10/20 04:22:27;;;;;;;1.80;1.30;;;21.70;72.10;;;;;;4957408;28;20129;-22
2022/10/20 04:24:52;;;;;;;1.63;1.52;;;21.70;72.10;;;;;;4954672;28;20066;-20
2022/10/20 04:27:18;;;;;;;1.55;1.40;;;21.70;72.10;;;;;;4959252;28;20047;-24
2022/10/20 04:29:45;;;;;;;1.40;1.30;;;21.60;72.00;;;;;;4956242;28;20527;-21
2022/10/20 04:32:10;;;;;;;1.85;1.20;;;21.70;72.10;;;;;;4953400;28;20047;-24
2022/10/20 04:34:36;;;;;;;1.40;1.30;;;21.60;72.10;;;;;;4962534;28;20528;-21
2022/10/20 04:37:01;;;;;;;1.63;1.52;;;21.60;72.10;;;;;;4958176;28;20055;-21
2022/10/20 04:39:27;;;;;;;1.25;1.17;;;21.60;72.10;;;;;;4956750;28;20043;-20
2022/10/20 04:41:53;;;;;;;2.28;1.70;;;21.70;72.10;;;;;;4955781;28;20055;-23
2022/10/20 04:44:18;;;;;;;1.35;1.25;;;21.60;72.10;;;;;;4964439;28;20046;-23
2022/10/20 04:46:44;;;;;;;1.20;1.10;;;21.70;72.00;;;;;;4960309;28;20054;-22
2022/10/20 04:49:09;;;;;;;2.15;1.20;;;21.70;72.00;;;;;;4962932;28;20484;-24
2022/10/20 04:51:35;;;;;;;1.30;1.30;;;21.70;72.00;;;;;;4956241;28;20379;-25
2022/10/20 04:54:00;;;;;;;1.33;1.20;;;21.60;72.10;;;;;;4955665;28;20044;-22
2022/10/20 04:56:26;;;;;;;1.55;1.30;;;21.60;72.10;;;;;;4951830;28;20102;-22
2022/10/20 04:58:55;;;;;;;1.45;1.38;;;21.60;72.10;;;;;;4964168;28;20038;-21
2022/10/20 05:01:22;;;;;;;1.58;1.48;;;21.70;72.10;;;;;;4952833;28;20051;-25
2022/10/20 05:03:48;;;;;;;1.63;1.50;;;21.70;71.90;;;;;;4952402;28;20212;-24
2022/10/20 05:06:18;;;;;;;1.50;1.40;;;21.70;71.80;;;;;;4954228;28;20537;-22
2022/10/20 05:08:45;;;;;;;1.35;1.27;;;21.70;72.00;;;;;;4947030;28;20191;-22
2022/10/20 05:11:11;;;;;;;1.40;1.30;;;21.70;72.20;;;;;;4948566;28;20101;-22
2022/10/20 05:13:36;;;;;;;1.52;1.42;;;21.70;72.10;;;;;;4950707;28;20046;-21
2022/10/20 05:16:03;;;;;;;1.40;1.30;;;21.70;72.40;;;;;;4950807;28;20043;-26
2022/10/20 05:18:28;;;;;;;1.17;1.08;;;21.80;72.00;;;;;;4952616;28;20051;-23
2022/10/20 05:20:54;;;;;;;2.20;1.38;;;21.70;72.50;;;;;;4954186;28;20093;-21
2022/10/20 05:23:20;;;;;;;1.70;1.60;;;21.80;72.90;;;;;;4958088;28;20051;-24
2022/10/20 05:25:45;;;;;;;1.92;1.83;;;21.70;73.90;;;;;;4950456;28;20113;-21
2022/10/20 05:28:11;;;;;;;2.35;1.45;;;21.70;75.10;;;;;;4950446;28;20066;-21
2022/10/20 05:30:36;;;;;;;6.32;2.10;;;21.70;74.20;;;;;;4598847;28;10000927;-17
2022/10/20 05:33:02;;;;;;;2.40;2.20;;;21.70;74.30;;;;;;4962058;28;20054;-21
2022/10/20 05:35:28;;;;;;;1.77;1.67;;;21.70;74.00;;;;;;4948943;28;20045;-21
2022/10/20 05:37:54;;;;;;;1.80;1.70;;;21.70;74.10;;;;;;4951802;28;20088;-21
2022/10/20 05:40:20;;;;;;;2.13;1.92;;;21.70;74.50;;;;;;4950962;28;20047;-21
2022/10/20 05:42:45;;;;;;;2.75;1.85;;;21.80;73.80;;;;;;4953067;28;20053;-22
2022/10/20 05:45:11;;;;;;;3.17;1.85;;;21.80;73.50;;;;;;4951096;28;20058;-24
2022/10/20 05:47:37;;;;;;;2.67;1.77;;;21.80;74.30;;;;;;4949914;28;20042;-27
2022/10/20 05:50:02;;;;;;;2.15;1.55;;;21.70;74.60;;;;;;4957517;28;20425;-23
2022/10/20 05:52:28;;;;;;;1.40;1.30;;;21.80;74.10;;;;;;4946507;28;20058;-21
2022/10/20 05:54:53;;;;;;;1.55;1.40;;;21.80;73.70;;;;;;4952728;28;20054;-25
2022/10/20 05:57:19;;;;;;;1.48;1.38;;;21.70;74.40;;;;;;4958789;28;20055;-22
2022/10/20 05:59:45;;;;;;;1.80;1.52;;;21.70;74.80;;;;;;4957669;28;20027;-25
2022/10/20 06:02:10;;;;;;;1.70;1.60;;;21.60;74.80;;;;;;4958612;28;20573;-24
2022/10/20 06:04:36;;;;;;;2.08;1.60;;;21.60;75.20;;;;;;4958233;28;20090;-26
2022/10/20 06:07:02;;;;;;;2.00;1.40;;;21.60;75.50;;;;;;4951140;28;20429;-21
2022/10/20 06:09:27;;;;;;;1.63;1.52;;;21.60;75.30;;;;;;4950866;28;20530;-21
2022/10/20 06:11:53;;;;;;;1.20;1.20;;;21.60;75.00;;;;;;4946611;28;20055;-22
2022/10/20 06:14:21;;;;;;;1.75;1.65;;;21.60;75.30;;;;;;4952148;28;20507;-23
2022/10/20 06:16:49;;;;;;;1.63;1.52;;;21.60;75.30;;;;;;4949320;28;20129;-22
2022/10/20 06:19:15;;;;;;;1.65;1.38;;;21.60;75.20;;;;;;4952011;28;20043;-21
2022/10/20 06:21:40;;;;;;;1.50;1.40;;;21.60;75.30;;;;;;4951041;28;20085;-19
2022/10/20 06:24:06;;;;;;;1.52;1.40;;;21.60;75.20;;;;;;4953705;28;20125;-21
2022/10/20 06:26:33;;;;;;;1.48;1.30;;;21.60;75.30;;;;;;4952708;28;20054;-21
2022/10/20 06:28:58;;;;;;;1.33;1.13;;;21.50;75.40;;;;;;4955410;28;20113;-22
2022/10/20 06:31:26;;;;;;;1.42;1.30;;;21.50;75.30;;;;;;4950693;28;20536;-25
2022/10/20 06:33:51;;;;;;;1.40;1.30;;;21.50;75.20;;;;;;4952698;28;20109;-29
2022/10/20 06:36:17;;;;;;;1.27;1.10;;;21.50;75.30;;;;;;4956687;28;20035;-24
2022/10/20 06:38:43;;;;;;;1.40;1.23;;;21.50;75.30;;;;;;4948782;28;20572;-22
2022/10/20 06:41:14;;;;;;;1.40;1.30;;;21.50;75.30;;;;;;4962565;28;20035;-24
2022/10/20 06:43:40;;;;;;;1.30;1.20;;;21.50;75.20;;;;;;4960273;28;20046;-24
2022/10/20 06:46:07;;;;;;;3.38;1.00;;;21.50;75.00;;;;;;4958154;28;20048;-27
2022/10/20 06:48:33;;;;;;;1.00;1.00;;;21.50;75.20;;;;;;4958179;28;20199;-35
2022/10/20 06:51:00;;;;;;;1.20;1.10;;;21.50;75.90;;;;;;4960225;28;20096;-21
2022/10/20 06:53:26;;;;;;;1.85;1.23;;;21.60;74.80;;;;;;4957377;28;20070;-23
2022/10/20 06:56:18;;;;;;;0.90;0.90;;;21.50;75.00;;;;;;4956002;28;20035;-25
2022/10/20 06:58:45;;;;;;;1.08;1.08;;;21.50;74.70;;;;;;4957980;28;20050;-23
2022/10/20 07:01:16;;;;;;;1.10;1.10;;;21.50;74.90;;;;;;4958008;28;20105;-23
2022/10/20 07:03:42;;;;;;;1.75;1.10;;;21.50;75.00;;;;;;4961054;28;20085;-22
2022/10/20 07:06:07;;;;;;;1.00;1.00;;;21.40;74.80;;;;;;4951686;28;20042;-22
2022/10/20 07:08:34;;;;;;;1.15;1.00;;;21.50;75.50;;;;;;4956310;28;20055;-22
2022/10/20 07:11:00;;;;;;;1.85;1.10;;;21.50;74.70;;;;;;4959399;28;20049;-24
2022/10/20 07:13:26;;;;;;;0.73;0.73;;;21.40;74.70;;;;;;4960415;28;20039;-23
2022/10/20 07:15:53;;;;;;;0.93;0.93;;;21.40;74.70;;;;;;4937644;28;20191;-27
2022/10/20 07:18:19;;;;;;;1.05;1.05;;;21.40;75.60;;;;;;4960825;28;20552;-26
2022/10/20 07:20:44;;;;;;;1.52;0.93;;;21.40;74.70;;;;;;4956981;28;20052;-23
2022/10/20 07:23:10;;;;;;;1.45;1.27;;;21.40;74.60;;;;;;4962316;28;20047;-25
2022/10/20 07:25:36;;;;;;;1.35;1.00;;;21.40;74.60;;;;;;4959465;28;20065;-21
2022/10/20 07:28:01;;;;;;;1.88;0.80;;;21.40;74.60;;;;;;4961450;28;20401;-23
2022/10/20 07:30:27;;;;;;;1.95;0.80;;;21.40;74.80;;;;;;4957065;28;21851;-23
2022/10/20 07:32:52;;;;;;;0.70;0.70;;;21.40;74.70;;;;;;4958183;28;20528;-25
2022/10/20 07:35:18;;;;;;;0.63;0.63;;;21.40;74.80;;;;;;4958709;28;20050;-30
2022/10/20 07:37:43;;;;;;;0.98;0.98;;;21.40;74.70;;;;;;4957975;28;20070;-31
2022/10/20 07:40:10;;;;;;;0.73;0.70;;;21.40;74.60;;;;;;4957614;28;20584;-28
2022/10/20 07:42:35;;;;;;;0.70;0.70;;;21.40;74.60;;;;;;4956787;28;20041;-26
2022/10/20 07:45:01;;;;;;;1.15;1.05;;;21.40;74.60;;;;;;4957423;28;20055;-28
2022/10/20 07:47:26;;;;;;;1.20;0.82;;;21.40;74.60;;;;;;4961580;28;20049;-27
2022/10/20 07:49:52;;;;;;;0.65;0.65;;;21.40;74.60;;;;;;4953529;28;20060;-23
2022/10/20 07:52:17;;;;;;;0.77;0.60;;;21.40;75.30;;;;;;4958843;28;20455;-22
2022/10/20 07:54:43;;;;;;;1.17;1.10;;;21.40;74.60;;;;;;4959012;28;20054;-29
2022/10/20 07:57:09;;;;;;;0.55;0.55;;;21.40;74.70;;;;;;4957841;28;20378;-24
2022/10/20 07:59:35;;;;;;;0.88;0.80;;;21.40;74.60;;;;;;4958376;28;20046;-21
2022/10/20 08:02:00;;;;;;;1.25;0.80;;;21.40;74.60;;;;;;4958190;28;20054;-26
2022/10/20 08:04:26;;;;;;;0.60;0.60;;;21.40;74.50;;;;;;4959851;28;20038;-27
2022/10/20 08:06:52;;;;;;;0.90;0.70;;;21.40;74.50;;;;;;4957142;28;20054;-25
2022/10/20 08:09:17;;;;;;;1.10;0.95;;;21.30;74.40;;;;;;4958083;28;20510;-31
2022/10/20 08:11:43;;;;;;;0.80;0.80;;;21.40;74.40;;;;;;4959957;28;20596;-26
2022/10/20 08:14:08;;;;;;;1.15;1.02;;;21.40;74.40;;;;;;4956506;28;20077;-22
2022/10/20 08:16:34;;;;;;;0.73;0.73;;;21.40;74.30;;;;;;4957795;28;20054;-27
2022/10/20 08:19:00;;;;;;;0.60;0.60;;;21.40;74.30;;;;;;4956691;28;20058;-25
2022/10/20 08:21:25;;;;;;;1.60;0.63;;;21.40;74.20;;;;;;4958976;28;20043;-26
2022/10/20 08:23:51;;;;;;;0.63;0.63;;;21.40;74.20;;;;;;4955252;28;20102;-22
2022/10/20 08:26:21;;;;;;;0.60;0.60;;;21.50;74.20;;;;;;4957211;28;20522;-25
2022/10/20 08:28:47;;;;;;;0.82;0.77;;;21.40;74.00;;;;;;4955322;28;20035;-28
2022/10/20 08:31:13;;;;;;;0.47;0.47;;;21.50;74.00;;;;;;4957743;28;20109;-22
2022/10/20 08:33:39;;;;;;;0.68;0.60;;;21.50;73.90;;;;;;4961231;28;20520;-25
2022/10/20 08:36:09;;;;;;;1.25;0.80;;;21.50;73.80;;;;;;4958129;28;20047;-25
2022/10/20 08:38:35;;;;;;;0.85;0.70;;;21.50;73.80;;;;;;4956130;28;20059;-24
2022/10/20 08:41:01;;;;;;;0.57;0.57;;;21.50;73.70;;;;;;4956149;28;20043;-23
2022/10/20 08:43:27;;;;;;;1.15;0.80;;;21.50;73.60;;;;;;4975423;28;20129;-30
2022/10/20 08:45:53;;;;;;;1.75;0.40;;;21.50;73.60;;;;;;4955630;28;20271;-23
2022/10/20 08:48:24;;;;;;;0.60;0.60;;;21.50;73.50;;;;;;4958113;28;20055;-22
2022/10/20 08:50:50;;;;;;;0.80;0.77;;;21.60;73.20;;;;;;4954887;28;20055;-25
2022/10/20 08:53:17;;;;;;;0.60;0.60;;;21.60;73.20;;;;;;4958828;28;20051;-22
2022/10/20 08:55:43;;;;;;;0.60;0.60;;;21.60;73.20;;;;;;4940047;28;20413;-22
2022/10/20 08:58:14;;;;;;;0.52;0.50;;;21.60;72.80;;;;;;4955114;28;20035;-26
2022/10/20 09:00:40;;;;;;;0.60;0.60;;;21.60;72.80;;;;;;4971159;28;20053;-24
2022/10/20 09:03:23;;;;;;;0.63;0.45;;;21.70;72.70;;;;;;4959474;28;20038;-23
2022/10/20 09:05:51;;;;;;;0.55;0.55;;;21.60;72.50;;;;;;4948784;28;20051;-31
2022/10/20 09:08:17;;;;;;;0.75;0.47;;;21.70;72.60;;;;;;4951230;28;20134;-24
2022/10/20 09:10:51;;;;;;;0.30;0.30;;;21.70;72.50;;;;;;4613667;28;10000235;-22
2022/10/20 09:13:28;;;;;;;0.50;0.50;;;21.70;72.50;;;;;;4958766;28;20117;-22
2022/10/20 09:15:58;;;;;;;1.52;0.40;;;21.70;72.50;;;;;;4946527;28;20042;-28
2022/10/20 09:18:24;;;;;;;0.57;0.57;;;21.80;72.40;;;;;;4949438;28;20043;-28
2022/10/20 09:20:57;;;;;;;0.43;0.43;;;21.80;72.20;;;;;;4950657;28;20053;-23
2022/10/20 09:23:24;;;;;;;0.60;0.60;;;21.90;71.90;;;;;;4946786;28;20049;-28
2022/10/20 09:25:50;;;;;;;0.30;0.30;;;21.90;71.80;;;;;;4952734;28;20068;-27
2022/10/20 09:28:26;;;;;;;0.50;0.50;;;21.90;71.80;;;;;;4951929;28;20109;-28
2022/10/20 09:30:53;;;;;;;0.32;0.32;;;22.00;71.70;;;;;;4950220;28;20047;-25
2022/10/20 09:33:29;;;;;;;0.50;0.50;;;21.90;71.80;;;;;;4951839;28;20061;-24
2022/10/20 09:36:14;;;;;;;0.60;0.60;;;22.00;71.60;;;;;;4950345;28;20139;-25
2022/10/20 09:38:45;;;;;;;0.43;0.43;;;22.10;71.20;;;;;;4950967;28;20442;-31
2022/10/20 09:41:13;;;;;;;0.40;0.40;;;22.20;71.30;;;;;;4948273;28;20051;-23
2022/10/20 09:43:54;;;;;;;0.63;0.63;;;22.20;71.10;;;;;;4945516;28;20081;-25
2022/10/20 09:46:21;;;;;;;0.45;0.45;;;22.20;71.00;;;;;;4956740;28;20047;-22
2022/10/20 09:48:47;;;;;;;0.60;0.60;;;22.20;71.10;;;;;;4953650;28;20383;-22
2022/10/20 09:51:15;;;;;;;0.40;0.40;;;22.20;71.90;;;;;;4969396;28;20051;-22
2022/10/20 09:53:58;;;;;;;0.60;0.60;;;22.30;71.50;;;;;;4973272;28;20436;-22
2022/10/20 09:56:41;;;;;;;0.40;0.35;;;22.30;70.70;;;;;;4968922;28;20046;-22
2022/10/20 09:59:23;;;;;;;0.50;0.50;;;22.30;70.50;;;;;;4970794;28;20085;-31
2022/10/20 10:01:59;;;;;;;0.38;0.38;;;22.30;70.70;;;;;;4953757;28;20065;-21
2022/10/20 10:04:35;;;;;;;0.50;0.50;;;22.40;70.60;;;;;;4943980;28;20039;-23
2022/10/20 10:07:02;;;;;;;0.45;0.40;;;22.50;70.20;;;;;;4956721;28;20138;-27
2022/10/20 10:09:36;;;;;;;0.40;0.40;;;22.60;70.00;;;;;;4960679;28;20058;-27
2022/10/20 10:12:11;;;;;;;0.50;0.40;;;22.60;69.70;;;;;;4957198;28;20053;-23
2022/10/20 10:14:53;;;;;;;0.20;0.20;;;22.70;69.30;;;;;;4958803;28;20118;-27
2022/10/20 10:17:39;;;;;;;0.60;0.50;;;22.80;69.30;;;;;;4954940;28;20049;-24
2022/10/20 10:20:25;;;;;;;0.35;0.35;;;22.70;70.10;;;;;;4974000;28;20039;-31
2022/10/20 10:22:51;;;;;;;0.60;0.35;;;22.80;69.10;;;;;;4954579;28;20035;-30
2022/10/20 10:25:26;;;;;;;0.50;0.50;;;22.70;69.30;;;;;;4969075;28;20422;-23
2022/10/20 10:28:18;;;;;;;1.92;0.60;;;22.60;69.70;;;;;;4957499;28;20116;-25
2022/10/20 10:30:44;;;;;;;0.35;0.35;;;22.70;69.60;;;;;;4981474;28;20047;-26
2022/10/20 10:33:25;;;;;;;0.30;0.30;;;22.60;69.80;;;;;;4957110;28;20054;-22
2022/10/20 10:35:51;;;;;;;0.30;0.30;;;22.60;69.90;;;;;;4957631;28;20909;-28
2022/10/20 10:38:16;;;;;;;0.43;0.43;;;22.70;69.70;;;;;;4973886;28;20048;-26
2022/10/20 10:41:16;;;;;;;0.52;0.32;;;22.60;69.70;;;;;;4961773;28;20039;-23
2022/10/20 10:43:59;;;;;;;0.60;0.60;;;22.60;69.80;;;;;;4955614;28;20059;-28
2022/10/20 10:46:57;;;;;;;0.50;0.20;;;22.60;69.80;;;;;;4975085;28;20050;-26
2022/10/20 10:49:34;;;;;;;0.20;0.20;;;22.60;70.00;;;;;;4953622;28;20076;-22
2022/10/20 10:52:38;;;;;;;0.30;0.30;;;22.50;69.80;;;;;;4990649;28;20050;-32
2022/10/20 10:55:27;;;;;;;0.20;0.20;;;22.60;69.80;;;;;;4959570;28;20062;-22
2022/10/20 10:58:24;;;;;;;0.30;0.30;;;22.70;69.70;;;;;;4974363;28;20043;-21
2022/10/20 11:00:57;;;;;;;0.30;0.28;;;22.70;69.50;;;;;;4971798;28;20522;-26
2022/10/20 11:03:38;;;;;;;0.28;0.28;;;22.70;69.40;;;;;;4957969;28;20047;-21
2022/10/20 11:06:26;;;;;;;0.40;0.30;;;22.70;69.50;;;;;;4958544;28;20055;-23
2022/10/20 11:09:10;;;;;;;0.32;0.32;;;22.70;70.30;;;;;;4956641;28;20049;-24
2022/10/20 11:11:52;;;;;;;0.52;0.30;;;22.70;69.50;;;;;;4956744;28;20425;-27
2022/10/20 11:14:40;;;;;;;0.10;0.10;;;22.70;69.40;;;;;;4957903;28;20535;-31
2022/10/20 11:17:30;;;;;;;0.30;0.20;;;22.70;69.40;;;;;;4955692;28;20058;-23
2022/10/20 11:20:31;;;;;;;0.33;0.31;;;22.70;69.40;;;;;;4858795;28;10000961;-24
2022/10/20 11:23:06;;;;;;;0.32;0.32;;;22.80;69.40;;;;;;4930641;28;20248;-24
2022/10/20 11:25:32;;;;;;;0.20;0.20;;;22.80;69.50;;;;;;4952836;28;20031;-24
2022/10/20 11:27:58;;;;;;;0.50;0.40;;;22.70;69.40;;;;;;4946228;28;20039;-22
2022/10/20 11:30:26;;;;;;;0.20;0.20;;;22.70;69.60;;;;;;4956261;28;21029;-24
2022/10/20 11:32:56;;;;;;;0.40;0.40;;;22.70;69.60;;;;;;4605807;28;10000125;-27
2022/10/20 11:35:57;;;;;;;0.40;0.40;;;22.80;69.40;;;;;;4949963;28;20102;-23
2022/10/20 11:38:40;;;;;;;0.55;0.38;;;22.70;69.60;;;;;;4598692;28;10000671;-23
2022/10/20 11:41:26;;;;;;;0.40;0.40;;;22.80;69.70;;;;;;4951692;28;20039;-24
2022/10/20 11:44:17;;;;;;;1.38;0.45;;;22.80;69.70;;;;;;4951997;28;20047;-26
2022/10/20 11:46:46;;;;;;;0.35;0.30;;;22.80;69.50;;;;;;4963961;28;20533;-25
2022/10/20 11:49:11;;;;;;;1.60;0.50;;;22.80;69.70;;;;;;4965357;28;20051;-26
2022/10/20 11:52:03;;;;;;;0.88;0.30;;;22.80;70.50;;;;;;4956882;28;20049;-21
2022/10/20 11:54:53;;;;;;;0.63;0.30;;;22.80;69.70;;;;;;4957054;28;20039;-22
2022/10/20 11:57:32;;;;;;;0.40;0.30;;;22.80;69.80;;;;;;4989539;28;20050;-29
2022/10/20 12:00:09;;;;;;;0.30;0.20;;;22.80;69.90;;;;;;4957035;28;20083;-22
2022/10/20 12:03:02;;;;;;;0.30;0.30;;;22.70;70.00;;;;;;4958322;28;20121;-31
2022/10/20 12:05:46;;;;;;;0.57;0.40;;;22.80;69.70;;;;;;4957032;28;20648;-28
2022/10/20 12:08:39;;;;;;;0.60;0.30;;;22.80;69.80;;;;;;4958069;28;20375;-31
2022/10/20 12:11:26;;;;;;;0.30;0.28;;;22.80;69.90;;;;;;4958489;28;20047;-23
2022/10/20 12:14:13;;;;;;;0.30;0.30;;;22.90;69.80;;;;;;4942230;28;20047;-29
2022/10/20 12:16:50;;;;;;;0.40;0.30;;;22.90;69.80;;;;;;4961083;28;20035;-25
2022/10/20 12:19:21;;;;;;;0.50;0.25;;;22.80;70.00;;;;;;4955987;28;20074;-25
2022/10/20 12:21:54;;;;;;;0.55;0.30;;;22.80;69.90;;;;;;4956211;28;20047;-22
2022/10/20 12:24:39;;;;;;;1.03;0.40;;;22.80;69.70;;;;;;4955932;28;20036;-28
2022/10/20 12:27:07;;;;;;;0.43;0.40;;;22.80;70.00;;;;;;4968497;28;20129;-28
2022/10/20 12:29:33;;;;;;;1.00;0.52;;;22.80;70.10;;;;;;4958262;28;20050;-23
2022/10/20 12:32:20;;;;;;;2.28;0.60;;;22.70;70.10;;;;;;4958895;28;20089;-22
2022/10/20 12:35:09;;;;;;;0.50;0.40;;;22.80;70.00;;;;;;4960008;28;20038;-31
2022/10/20 12:37:35;;;;;;;0.35;0.25;;;22.80;70.10;;;;;;4954549;28;20048;-35
2022/10/20 12:40:24;;;;;;;1.00;0.50;;;22.70;70.20;;;;;;4955131;28;20043;-39
2022/10/20 12:42:51;;;;;;;0.30;0.30;;;22.70;70.40;;;;;;4937146;28;20043;-23
2022/10/20 12:45:19;;;;;;;0.30;0.30;;;22.70;70.60;;;;;;4959480;28;20519;-26
2022/10/20 12:47:55;;;;;;;0.20;0.20;;;22.60;70.60;;;;;;4955471;28;20040;-33
2022/10/20 12:50:48;;;;;;;0.40;0.30;;;22.60;70.70;;;;;;4969466;28;20050;-27
2022/10/20 12:53:25;;;;;;;0.20;0.20;;;22.60;70.60;;;;;;4955435;28;20075;-32
2022/10/20 12:56:02;;;;;;;0.30;0.30;;;22.60;70.70;;;;;;4960783;28;20121;-35
2022/10/20 12:58:38;;;;;;;0.30;0.30;;;22.60;70.60;;;;;;4962588;28;20121;-27
2022/10/20 13:01:10;;;;;;;0.60;0.20;;;22.70;71.40;;;;;;4960431;28;20123;-27
2022/10/20 13:03:56;;;;;;;0.25;0.20;;;22.60;70.50;;;;;;4961939;28;20070;-32